sensor_id;sensor_type;location;lat;lon;timestamp;P1;durP1;ratioP1;P2;durP2;ratioP2
77705;SDS011;66874;45.274;5.880;2023-04-29T02:01:11;3.38;;;1.73;;
77705;SDS011;66874;45.274;5.880;2023-04-29T02:03:37;4.15;;;2.17;;
77705;SDS011;66874;45.274;5.880;2023-04-29T02:06:03;9.40;;;2.35;;
77705;SDS011;66874;45.274;5.880;2023-04-29T02:08:30;3.00;;;2.20;;
77705;SDS011;66874;45.274;5.880;2023-04-29T02:10:57;2.65;;;2.20;;
77705;SDS011;66874;45.274;5.880;2023-04-29T02:15:49;4.60;;;2.20;;
77705;SDS011;66874;45.274;5.880;2023-04-29T02:18:14;3.92;;;2.05;;
77705;SDS011;66874;45.274;5.880;2023-04-29T02:20:40;3.33;;;2.30;;
77705;SDS011;66874;45.274;5.880;2023-04-29T02:23:06;3.47;;;2.50;;
77705;SDS011;66874;45.274;5.880;2023-04-29T02:25:31;2.83;;;2.20;;
77705;SDS011;66874;45.274;5.880;2023-04-29T02:27:57;6.40;;;2.80;;
77705;SDS011;66874;45.274;5.880;2023-04-29T05:31:00;9.20;;;5.60;;
77705;SDS011;66874;45.274;5.880;2023-04-29T05:33:25;11.07;;;6.40;;
77705;SDS011;66874;45.274;5.880;2023-04-29T05:35:50;10.30;;;6.53;;
77705;SDS011;66874;45.274;5.880;2023-04-29T05:38:16;12.48;;;6.03;;
77705;SDS011;66874;45.274;5.880;2023-04-29T05:40:41;8.20;;;6.10;;
77705;SDS011;66874;45.274;5.880;2023-04-29T05:43:06;9.25;;;5.28;;
77705;SDS011;66874;45.274;5.880;2023-04-29T05:45:32;9.68;;;5.97;;
77705;SDS011;66874;45.274;5.880;2023-04-29T05:47:57;8.40;;;5.53;;
77705;SDS011;66874;45.274;5.880;2023-04-29T05:50:23;7.22;;;4.70;;
77705;SDS011;66874;45.274;5.880;2023-04-29T05:52:48;5.95;;;4.78;;
77705;SDS011;66874;45.274;5.880;2023-04-29T05:55:13;10.20;;;4.85;;
77705;SDS011;66874;45.274;5.880;2023-04-29T05:57:39;8.18;;;4.65;;
77705;SDS011;66874;45.274;5.880;2023-04-29T06:00:05;9.35;;;4.82;;
77705;SDS011;66874;45.274;5.880;2023-04-29T06:02:31;5.90;;;4.10;;
77705;SDS011;66874;45.274;5.880;2023-04-29T06:04:57;5.88;;;4.05;;
77705;SDS011;66874;45.274;5.880;2023-04-29T06:07:22;6.38;;;4.15;;
77705;SDS011;66874;45.274;5.880;2023-04-29T06:09:48;6.13;;;4.32;;
77705;SDS011;66874;45.274;5.880;2023-04-29T06:12:14;8.30;;;4.78;;
77705;SDS011;66874;45.274;5.880;2023-04-29T06:14:39;10.45;;;5.53;;
77705;SDS011;66874;45.274;5.880;2023-04-29T06:17:05;10.10;;;5.82;;
77705;SDS011;66874;45.274;5.880;2023-04-29T06:19:30;12.30;;;6.65;;
77705;SDS011;66874;45.274;5.880;2023-04-29T06:21:57;9.27;;;5.93;;
77705;SDS011;66874;45.274;5.880;2023-04-29T06:24:23;9.77;;;6.60;;
77705;SDS011;66874;45.274;5.880;2023-04-29T06:26:48;24.35;;;7.70;;
77705;SDS011;66874;45.274;5.880;2023-04-29T06:29:13;10.30;;;6.75;;
77705;SDS011;66874;45.274;5.880;2023-04-29T06:31:39;9.00;;;5.90;;
77705;SDS011;66874;45.274;5.880;2023-04-29T06:34:04;9.63;;;6.20;;
77705;SDS011;66874;45.274;5.880;2023-04-29T06:36:30;10.50;;;6.07;;
77705;SDS011;66874;45.274;5.880;2023-04-29T06:38:56;7.57;;;4.53;;
77705;SDS011;66874;45.274;5.880;2023-04-29T06:41:21;10.30;;;5.13;;
77705;SDS011;66874;45.274;5.880;2023-04-29T06:43:47;4.93;;;4.00;;
77705;SDS011;66874;45.274;5.880;2023-04-29T06:46:13;6.32;;;3.75;;
77705;SDS011;66874;45.274;5.880;2023-04-29T06:48:38;4.65;;;3.00;;
77705;SDS011;66874;45.274;5.880;2023-04-29T06:51:03;4.07;;;3.13;;
77705;SDS011;66874;45.274;5.880;2023-04-29T06:53:29;8.65;;;3.90;;
77705;SDS011;66874;45.274;5.880;2023-04-29T06:55:54;10.23;;;4.13;;
77705;SDS011;66874;45.274;5.880;2023-04-29T06:58:20;7.05;;;3.90;;
77705;SDS011;66874;45.274;5.880;2023-04-29T07:00:46;4.70;;;4.03;;
77705;SDS011;66874;45.274;5.880;2023-04-29T07:03:12;8.65;;;4.60;;
77705;SDS011;66874;45.274;5.880;2023-04-29T07:05:39;4.38;;;3.83;;
77705;SDS011;66874;45.274;5.880;2023-04-29T07:08:06;8.20;;;4.13;;
77705;SDS011;66874;45.274;5.880;2023-04-29T07:10:32;8.90;;;4.60;;
77705;SDS011;66874;45.274;5.880;2023-04-29T07:12:58;7.35;;;4.47;;
77705;SDS011;66874;45.274;5.880;2023-04-29T07:15:24;5.40;;;4.10;;
77705;SDS011;66874;45.274;5.880;2023-04-29T07:17:51;7.30;;;5.20;;
77705;SDS011;66874;45.274;5.880;2023-04-29T07:20:16;5.60;;;4.28;;
77705;SDS011;66874;45.274;5.880;2023-04-29T07:22:42;7.68;;;4.75;;
77705;SDS011;66874;45.274;5.880;2023-04-29T07:25:07;5.90;;;4.30;;
77705;SDS011;66874;45.274;5.880;2023-04-29T07:27:34;8.20;;;4.65;;
77705;SDS011;66874;45.274;5.880;2023-04-29T07:30:00;9.27;;;4.15;;
77705;SDS011;66874;45.274;5.880;2023-04-29T07:32:26;5.80;;;4.25;;
77705;SDS011;66874;45.274;5.880;2023-04-29T07:34:51;5.03;;;3.30;;
77705;SDS011;66874;45.274;5.880;2023-04-29T07:37:18;4.10;;;2.58;;
77705;SDS011;66874;45.274;5.880;2023-04-29T07:39:43;5.53;;;2.70;;
77705;SDS011;66874;45.274;5.880;2023-04-29T07:42:08;6.65;;;2.50;;
77705;SDS011;66874;45.274;5.880;2023-04-29T07:44:34;4.45;;;2.22;;
77705;SDS011;66874;45.274;5.880;2023-04-29T07:47:00;2.65;;;1.80;;
77705;SDS011;66874;45.274;5.880;2023-04-29T07:49:26;3.92;;;2.17;;
77705;SDS011;66874;45.274;5.880;2023-04-29T07:51:51;2.88;;;2.03;;
77705;SDS011;66874;45.274;5.880;2023-04-29T07:54:17;3.10;;;2.13;;
77705;SDS011;66874;45.274;5.880;2023-04-29T07:56:43;3.75;;;1.80;;
77705;SDS011;66874;45.274;5.880;2023-04-29T07:59:09;5.80;;;1.70;;
77705;SDS011;66874;45.274;5.880;2023-04-29T08:01:35;2.72;;;1.75;;
77705;SDS011;66874;45.274;5.880;2023-04-29T08:04:00;3.50;;;1.90;;
77705;SDS011;66874;45.274;5.880;2023-04-29T08:06:26;2.55;;;1.88;;
77705;SDS011;66874;45.274;5.880;2023-04-29T08:08:51;4.03;;;1.75;;
77705;SDS011;66874;45.274;5.880;2023-04-29T08:11:17;2.88;;;1.90;;
77705;SDS011;66874;45.274;5.880;2023-04-29T08:13:43;4.50;;;1.90;;
77705;SDS011;66874;45.274;5.880;2023-04-29T08:16:10;1.80;;;1.60;;
77705;SDS011;66874;45.274;5.880;2023-04-29T08:18:36;2.38;;;1.10;;
77705;SDS011;66874;45.274;5.880;2023-04-29T08:21:01;1.98;;;1.30;;
77705;SDS011;66874;45.274;5.880;2023-04-29T08:23:27;4.88;;;1.00;;
77705;SDS011;66874;45.274;5.880;2023-04-29T08:25:53;3.72;;;1.38;;
77705;SDS011;66874;45.274;5.880;2023-04-29T08:28:20;3.42;;;1.50;;
77705;SDS011;66874;45.274;5.880;2023-04-29T08:30:46;3.30;;;1.42;;
77705;SDS011;66874;45.274;5.880;2023-04-29T08:33:12;1.52;;;1.20;;
77705;SDS011;66874;45.274;5.880;2023-04-29T08:35:38;1.98;;;1.20;;
77705;SDS011;66874;45.274;5.880;2023-04-29T08:38:04;3.65;;;1.50;;
77705;SDS011;66874;45.274;5.880;2023-04-29T08:40:32;2.08;;;1.20;;
77705;SDS011;66874;45.274;5.880;2023-04-29T08:42:59;2.70;;;1.27;;
77705;SDS011;66874;45.274;5.880;2023-04-29T08:45:25;6.07;;;1.30;;
77705;SDS011;66874;45.274;5.880;2023-04-29T08:47:52;2.88;;;1.23;;
77705;SDS011;66874;45.274;5.880;2023-04-29T08:50:20;1.70;;;1.40;;
77705;SDS011;66874;45.274;5.880;2023-04-29T08:52:46;1.20;;;0.95;;
77705;SDS011;66874;45.274;5.880;2023-04-29T08:55:12;2.45;;;1.20;;
77705;SDS011;66874;45.274;5.880;2023-04-29T08:57:37;2.55;;;1.30;;
77705;SDS011;66874;45.274;5.880;2023-04-29T09:00:04;3.13;;;1.25;;
77705;SDS011;66874;45.274;5.880;2023-04-29T09:02:32;2.35;;;1.40;;
77705;SDS011;66874;45.274;5.880;2023-04-29T09:05:08;2.78;;;1.20;;
77705;SDS011;66874;45.274;5.880;2023-04-29T09:07:35;6.57;;;1.40;;
77705;SDS011;66874;45.274;5.880;2023-04-29T09:10:05;4.38;;;1.20;;
77705;SDS011;66874;45.274;5.880;2023-04-29T09:12:31;2.30;;;1.45;;
77705;SDS011;66874;45.274;5.880;2023-04-29T09:14:57;1.80;;;1.10;;
77705;SDS011;66874;45.274;5.880;2023-04-29T09:17:41;1.20;;;1.08;;
77705;SDS011;66874;45.274;5.880;2023-04-29T09:25:15;1.42;;;1.00;;
77705;SDS011;66874;45.274;5.880;2023-04-29T09:27:40;1.25;;;0.90;;
77705;SDS011;66874;45.274;5.880;2023-04-29T09:30:06;2.53;;;1.27;;
77705;SDS011;66874;45.274;5.880;2023-04-29T09:32:32;1.48;;;0.80;;
77705;SDS011;66874;45.274;5.880;2023-04-29T09:34:58;1.13;;;0.70;;
77705;SDS011;66874;45.274;5.880;2023-04-29T09:37:24;2.42;;;0.80;;
77705;SDS011;66874;45.274;5.880;2023-04-29T09:39:52;2.92;;;1.00;;
77705;SDS011;66874;45.274;5.880;2023-04-29T09:42:18;1.48;;;0.98;;
77705;SDS011;66874;45.274;5.880;2023-04-29T09:44:43;2.15;;;0.85;;
77705;SDS011;66874;45.274;5.880;2023-04-29T09:47:09;4.95;;;1.00;;
77705;SDS011;66874;45.274;5.880;2023-04-29T09:49:36;1.40;;;1.30;;
77705;SDS011;66874;45.274;5.880;2023-04-29T09:52:06;1.67;;;0.90;;
77705;SDS011;66874;45.274;5.880;2023-04-29T09:54:33;3.05;;;1.02;;
77705;SDS011;66874;45.274;5.880;2023-04-29T09:57:03;2.95;;;0.90;;
77705;SDS011;66874;45.274;5.880;2023-04-29T09:59:32;1.15;;;0.80;;
77705;SDS011;66874;45.274;5.880;2023-04-29T10:02:00;2.67;;;1.08;;
77705;SDS011;66874;45.274;5.880;2023-04-29T10:04:31;1.65;;;0.77;;
77705;SDS011;66874;45.274;5.880;2023-04-29T10:06:59;1.13;;;0.77;;
77705;SDS011;66874;45.274;5.880;2023-04-29T10:09:25;2.08;;;0.80;;
77705;SDS011;66874;45.274;5.880;2023-04-29T10:11:52;2.38;;;1.15;;
77705;SDS011;66874;45.274;5.880;2023-04-29T10:14:18;2.13;;;1.35;;
77705;SDS011;66874;45.274;5.880;2023-04-29T10:16:58;4.97;;;0.93;;
77705;SDS011;66874;45.274;5.880;2023-04-29T10:19:38;2.10;;;1.02;;
77705;SDS011;66874;45.274;5.880;2023-04-29T10:22:41;3.87;;;1.30;;
77705;SDS011;66874;45.274;5.880;2023-04-29T10:25:11;1.33;;;0.95;;
77705;SDS011;66874;45.274;5.880;2023-04-29T10:27:38;3.72;;;1.08;;
77705;SDS011;66874;45.274;5.880;2023-04-29T10:30:08;1.17;;;0.85;;
77705;SDS011;66874;45.274;5.880;2023-04-29T10:32:39;4.70;;;1.10;;
77705;SDS011;66874;45.274;5.880;2023-04-29T10:35:06;1.83;;;0.98;;
77705;SDS011;66874;45.274;5.880;2023-04-29T10:37:34;1.38;;;0.95;;
77705;SDS011;66874;45.274;5.880;2023-04-29T10:42:36;1.35;;;0.70;;
77705;SDS011;66874;45.274;5.880;2023-04-29T10:45:24;3.60;;;1.02;;
77705;SDS011;66874;45.274;5.880;2023-04-29T10:51:18;1.42;;;1.25;;
77705;SDS011;66874;45.274;5.880;2023-04-29T10:53:18;3.40;;;1.38;;
77705;SDS011;66874;45.274;5.880;2023-04-29T10:56:26;2.05;;;1.20;;
77705;SDS011;66874;45.274;5.880;2023-04-29T10:58:44;1.67;;;1.00;;
77705;SDS011;66874;45.274;5.880;2023-04-29T11:01:14;3.15;;;1.10;;
77705;SDS011;66874;45.274;5.880;2023-04-29T11:03:55;1.40;;;1.10;;
77705;SDS011;66874;45.274;5.880;2023-04-29T11:09:06;2.25;;;1.25;;
77705;SDS011;66874;45.274;5.880;2023-04-29T11:17:07;2.35;;;1.23;;
77705;SDS011;66874;45.274;5.880;2023-04-29T11:19:41;1.15;;;0.85;;
77705;SDS011;66874;45.274;5.880;2023-04-29T11:22:32;3.10;;;1.60;;
77705;SDS011;66874;45.274;5.880;2023-04-29T11:25:01;2.25;;;1.38;;
77705;SDS011;66874;45.274;5.880;2023-04-29T11:27:31;4.20;;;1.30;;
77705;SDS011;66874;45.274;5.880;2023-04-29T11:30:02;4.65;;;2.25;;
77705;SDS011;66874;45.274;5.880;2023-04-29T11:32:31;4.82;;;1.20;;
77705;SDS011;66874;45.274;5.880;2023-04-29T11:37:33;3.55;;;1.05;;
77705;SDS011;66874;45.274;5.880;2023-04-29T11:39:59;4.30;;;1.15;;
77705;SDS011;66874;45.274;5.880;2023-04-29T11:42:27;1.23;;;0.80;;
77705;SDS011;66874;45.274;5.880;2023-04-29T11:44:53;1.80;;;1.02;;
77705;SDS011;66874;45.274;5.880;2023-04-29T11:47:24;6.47;;;1.10;;
77705;SDS011;66874;45.274;5.880;2023-04-29T11:49:50;1.35;;;1.17;;
77705;SDS011;66874;45.274;5.880;2023-04-29T11:52:16;1.10;;;1.00;;
77705;SDS011;66874;45.274;5.880;2023-04-29T11:54:41;2.38;;;1.10;;
77705;SDS011;66874;45.274;5.880;2023-04-29T11:57:09;1.52;;;1.00;;
77705;SDS011;66874;45.274;5.880;2023-04-29T11:59:35;2.30;;;1.00;;
77705;SDS011;66874;45.274;5.880;2023-04-29T12:02:00;1.48;;;1.15;;
77705;SDS011;66874;45.274;5.880;2023-04-29T12:04:25;2.95;;;1.13;;
77705;SDS011;66874;45.274;5.880;2023-04-29T12:06:51;2.15;;;1.23;;
77705;SDS011;66874;45.274;5.880;2023-04-29T12:09:17;1.27;;;0.90;;
77705;SDS011;66874;45.274;5.880;2023-04-29T12:11:43;1.17;;;0.85;;
77705;SDS011;66874;45.274;5.880;2023-04-29T12:14:11;1.30;;;1.00;;
77705;SDS011;66874;45.274;5.880;2023-04-29T12:16:36;3.40;;;1.20;;
77705;SDS011;66874;45.274;5.880;2023-04-29T12:19:02;1.65;;;1.05;;
77705;SDS011;66874;45.274;5.880;2023-04-29T12:21:32;2.85;;;0.90;;
77705;SDS011;66874;45.274;5.880;2023-04-29T12:24:03;1.67;;;1.30;;
77705;SDS011;66874;45.274;5.880;2023-04-29T12:26:29;1.25;;;0.80;;
77705;SDS011;66874;45.274;5.880;2023-04-29T12:28:58;2.72;;;1.20;;
77705;SDS011;66874;45.274;5.880;2023-04-29T12:31:31;2.20;;;1.00;;
77705;SDS011;66874;45.274;5.880;2023-04-29T12:33:58;1.77;;;0.88;;
77705;SDS011;66874;45.274;5.880;2023-04-29T12:36:24;1.42;;;1.27;;
77705;SDS011;66874;45.274;5.880;2023-04-29T12:38:51;1.35;;;1.20;;
77705;SDS011;66874;45.274;5.880;2023-04-29T12:41:34;1.92;;;1.33;;
77705;SDS011;66874;45.274;5.880;2023-04-29T12:44:05;3.22;;;1.40;;
77705;SDS011;66874;45.274;5.880;2023-04-29T12:46:50;2.97;;;1.40;;
77705;SDS011;66874;45.274;5.880;2023-04-29T12:49:22;2.47;;;1.20;;
77705;SDS011;66874;45.274;5.880;2023-04-29T12:51:49;2.70;;;1.48;;
77705;SDS011;66874;45.274;5.880;2023-04-29T12:54:15;1.35;;;1.10;;
77705;SDS011;66874;45.274;5.880;2023-04-29T12:56:41;2.10;;;1.40;;
77705;SDS011;66874;45.274;5.880;2023-04-29T12:59:16;1.10;;;1.00;;
77705;SDS011;66874;45.274;5.880;2023-04-29T13:01:45;7.50;;;4.90;;
77705;SDS011;66874;45.274;5.880;2023-04-29T13:04:11;1.50;;;1.20;;
77705;SDS011;66874;45.274;5.880;2023-04-29T13:06:37;1.63;;;1.30;;
77705;SDS011;66874;45.274;5.880;2023-04-29T13:09:04;1.38;;;1.23;;
77705;SDS011;66874;45.274;5.880;2023-04-29T13:11:31;1.55;;;1.20;;
77705;SDS011;66874;45.274;5.880;2023-04-29T13:13:57;1.35;;;1.10;;
77705;SDS011;66874;45.274;5.880;2023-04-29T13:16:22;2.42;;;1.40;;
77705;SDS011;66874;45.274;5.880;2023-04-29T13:18:52;2.10;;;1.23;;
77705;SDS011;66874;45.274;5.880;2023-04-29T13:21:18;2.70;;;1.23;;
77705;SDS011;66874;45.274;5.880;2023-04-29T13:23:43;2.03;;;1.10;;
77705;SDS011;66874;45.274;5.880;2023-04-29T13:26:09;1.13;;;1.00;;
77705;SDS011;66874;45.274;5.880;2023-04-29T13:28:35;2.78;;;1.40;;
77705;SDS011;66874;45.274;5.880;2023-04-29T13:31:03;1.45;;;1.20;;
77705;SDS011;66874;45.274;5.880;2023-04-29T13:33:29;1.10;;;0.95;;
77705;SDS011;66874;45.274;5.880;2023-04-29T13:35:55;1.38;;;1.08;;
77705;SDS011;66874;45.274;5.880;2023-04-29T13:38:30;2.13;;;1.38;;
77705;SDS011;66874;45.274;5.880;2023-04-29T13:40:56;2.13;;;1.38;;
77705;SDS011;66874;45.274;5.880;2023-04-29T13:43:22;3.67;;;1.45;;
77705;SDS011;66874;45.274;5.880;2023-04-29T13:45:48;2.15;;;0.95;;
77705;SDS011;66874;45.274;5.880;2023-04-29T13:48:13;4.07;;;1.42;;
77705;SDS011;66874;45.274;5.880;2023-04-29T13:50:39;2.63;;;1.45;;
77705;SDS011;66874;45.274;5.880;2023-04-29T13:53:05;3.22;;;1.35;;
77705;SDS011;66874;45.274;5.880;2023-04-29T13:55:32;3.47;;;1.30;;
77705;SDS011;66874;45.274;5.880;2023-04-29T13:57:59;1.90;;;1.30;;
77705;SDS011;66874;45.274;5.880;2023-04-29T14:00:25;2.53;;;1.30;;
77705;SDS011;66874;45.274;5.880;2023-04-29T14:02:50;2.20;;;1.50;;
77705;SDS011;66874;45.274;5.880;2023-04-29T14:05:19;2.25;;;1.27;;
77705;SDS011;66874;45.274;5.880;2023-04-29T14:07:45;1.70;;;1.25;;
77705;SDS011;66874;45.274;5.880;2023-04-29T14:10:14;1.52;;;1.10;;
77705;SDS011;66874;45.274;5.880;2023-04-29T14:12:40;1.40;;;1.02;;
77705;SDS011;66874;45.274;5.880;2023-04-29T14:15:06;2.95;;;1.50;;
77705;SDS011;66874;45.274;5.880;2023-04-29T14:17:35;1.30;;;1.20;;
77705;SDS011;66874;45.274;5.880;2023-04-29T14:20:01;1.75;;;1.23;;
77705;SDS011;66874;45.274;5.880;2023-04-29T14:22:28;1.42;;;1.10;;
77705;SDS011;66874;45.274;5.880;2023-04-29T14:24:53;1.30;;;1.20;;
77705;SDS011;66874;45.274;5.880;2023-04-29T14:27:25;2.20;;;1.42;;
77705;SDS011;66874;45.274;5.880;2023-04-29T14:29:50;4.30;;;1.40;;
77705;SDS011;66874;45.274;5.880;2023-04-29T14:32:16;1.48;;;1.38;;
77705;SDS011;66874;45.274;5.880;2023-04-29T14:34:42;1.92;;;1.83;;
77705;SDS011;66874;45.274;5.880;2023-04-29T14:37:08;3.10;;;1.50;;
77705;SDS011;66874;45.274;5.880;2023-04-29T14:39:34;2.22;;;1.20;;
77705;SDS011;66874;45.274;5.880;2023-04-29T14:42:01;4.85;;;1.40;;
77705;SDS011;66874;45.274;5.880;2023-04-29T14:44:26;1.83;;;1.23;;
77705;SDS011;66874;45.274;5.880;2023-04-29T14:46:52;1.73;;;1.40;;
77705;SDS011;66874;45.274;5.880;2023-04-29T14:49:17;1.40;;;1.17;;
77705;SDS011;66874;45.274;5.880;2023-04-29T14:51:44;1.48;;;1.38;;
77705;SDS011;66874;45.274;5.880;2023-04-29T14:54:10;1.70;;;1.35;;
77705;SDS011;66874;45.274;5.880;2023-04-29T14:56:36;1.42;;;1.33;;
77705;SDS011;66874;45.274;5.880;2023-04-29T14:59:02;1.35;;;1.25;;
77705;SDS011;66874;45.274;5.880;2023-04-29T15:01:27;1.38;;;1.27;;
77705;SDS011;66874;45.274;5.880;2023-04-29T15:03:52;1.65;;;1.30;;
77705;SDS011;66874;45.274;5.880;2023-04-29T15:06:19;1.25;;;1.15;;
77705;SDS011;66874;45.274;5.880;2023-04-29T15:08:44;3.63;;;1.10;;
77705;SDS011;66874;45.274;5.880;2023-04-29T15:11:09;1.23;;;1.08;;
77705;SDS011;66874;45.274;5.880;2023-04-29T15:13:35;1.33;;;1.00;;
77705;SDS011;66874;45.274;5.880;2023-04-29T15:16:00;2.05;;;0.73;;
77705;SDS011;66874;45.274;5.880;2023-04-29T15:18:26;1.65;;;1.02;;
77705;SDS011;66874;45.274;5.880;2023-04-29T15:20:51;3.45;;;0.73;;
77705;SDS011;66874;45.274;5.880;2023-04-29T15:23:17;1.60;;;0.77;;
77705;SDS011;66874;45.274;5.880;2023-04-29T15:25:43;1.10;;;0.90;;
77705;SDS011;66874;45.274;5.880;2023-04-29T15:28:08;2.70;;;0.90;;
77705;SDS011;66874;45.274;5.880;2023-04-29T15:30:34;3.30;;;1.25;;
77705;SDS011;66874;45.274;5.880;2023-04-29T15:33:01;3.97;;;0.70;;
77705;SDS011;66874;45.274;5.880;2023-04-29T15:35:26;2.47;;;0.90;;
77705;SDS011;66874;45.274;5.880;2023-04-29T15:37:52;1.40;;;0.60;;
77705;SDS011;66874;45.274;5.880;2023-04-29T15:40:17;2.15;;;0.60;;
77705;SDS011;66874;45.274;5.880;2023-04-29T15:42:44;2.35;;;0.70;;
77705;SDS011;66874;45.274;5.880;2023-04-29T15:45:09;0.93;;;0.60;;
77705;SDS011;66874;45.274;5.880;2023-04-29T15:47:35;2.17;;;0.65;;
77705;SDS011;66874;45.274;5.880;2023-04-29T15:50:00;1.25;;;0.80;;
77705;SDS011;66874;45.274;5.880;2023-04-29T15:52:26;1.33;;;0.80;;
77705;SDS011;66874;45.274;5.880;2023-04-29T15:54:51;1.77;;;0.80;;
77705;SDS011;66874;45.274;5.880;2023-04-29T15:57:17;0.85;;;0.82;;
77705;SDS011;66874;45.274;5.880;2023-04-29T15:59:42;0.77;;;0.70;;
77705;SDS011;66874;45.274;5.880;2023-04-29T16:02:08;1.20;;;0.90;;
77705;SDS011;66874;45.274;5.880;2023-04-29T16:07:01;1.15;;;0.80;;
77705;SDS011;66874;45.274;5.880;2023-04-29T16:09:29;1.55;;;0.70;;
77705;SDS011;66874;45.274;5.880;2023-04-29T16:11:56;0.75;;;0.65;;
77705;SDS011;66874;45.274;5.880;2023-04-29T16:14:22;1.27;;;0.85;;
77705;SDS011;66874;45.274;5.880;2023-04-29T16:16:48;1.65;;;0.98;;
77705;SDS011;66874;45.274;5.880;2023-04-29T16:19:13;1.25;;;0.70;;
77705;SDS011;66874;45.274;5.880;2023-04-29T16:21:39;1.02;;;0.70;;
77705;SDS011;66874;45.274;5.880;2023-04-29T16:24:05;2.25;;;0.90;;
77705;SDS011;66874;45.274;5.880;2023-04-29T16:26:31;1.00;;;0.90;;
77705;SDS011;66874;45.274;5.880;2023-04-29T16:28:57;6.35;;;1.00;;
77705;SDS011;66874;45.274;5.880;2023-04-29T16:31:23;0.93;;;0.85;;
77705;SDS011;66874;45.274;5.880;2023-04-29T16:33:49;1.33;;;1.00;;
77705;SDS011;66874;45.274;5.880;2023-04-29T16:36:14;2.35;;;1.27;;
77705;SDS011;66874;45.274;5.880;2023-04-29T16:38:40;2.47;;;1.20;;
77705;SDS011;66874;45.274;5.880;2023-04-29T16:41:05;1.23;;;1.10;;
77705;SDS011;66874;45.274;5.880;2023-04-29T16:43:31;2.95;;;1.10;;
77705;SDS011;66874;45.274;5.880;2023-04-29T16:45:57;1.20;;;0.98;;
77705;SDS011;66874;45.274;5.880;2023-04-29T16:48:23;1.45;;;1.00;;
77705;SDS011;66874;45.274;5.880;2023-04-29T16:50:48;4.72;;;1.30;;
77705;SDS011;66874;45.274;5.880;2023-04-29T16:53:15;2.40;;;1.20;;
77705;SDS011;66874;45.274;5.880;2023-04-29T16:55:40;1.15;;;0.90;;
77705;SDS011;66874;45.274;5.880;2023-04-29T16:58:06;1.67;;;1.58;;
77705;SDS011;66874;45.274;5.880;2023-04-29T17:00:31;1.30;;;0.90;;
77705;SDS011;66874;45.274;5.880;2023-04-29T17:02:56;1.30;;;1.00;;
77705;SDS011;66874;45.274;5.880;2023-04-29T17:05:23;1.27;;;1.10;;
77705;SDS011;66874;45.274;5.880;2023-04-29T17:10:16;4.10;;;1.25;;
77705;SDS011;66874;45.274;5.880;2023-04-29T17:12:41;2.05;;;1.10;;
77705;SDS011;66874;45.274;5.880;2023-04-29T17:15:07;1.92;;;1.55;;
77705;SDS011;66874;45.274;5.880;2023-04-29T17:17:33;2.40;;;1.75;;
77705;SDS011;66874;45.274;5.880;2023-04-29T17:19:58;2.38;;;1.17;;
77705;SDS011;66874;45.274;5.880;2023-04-29T17:22:25;2.40;;;1.27;;
77705;SDS011;66874;45.274;5.880;2023-04-29T17:24:50;3.20;;;1.30;;
77705;SDS011;66874;45.274;5.880;2023-04-29T17:27:16;2.40;;;1.50;;
77705;SDS011;66874;45.274;5.880;2023-04-29T17:29:41;3.05;;;1.70;;
77705;SDS011;66874;45.274;5.880;2023-04-29T17:32:07;2.80;;;1.90;;
77705;SDS011;66874;45.274;5.880;2023-04-29T17:34:37;3.47;;;1.52;;
77705;SDS011;66874;45.274;5.880;2023-04-29T17:37:03;2.70;;;1.67;;
77705;SDS011;66874;45.274;5.880;2023-04-29T17:39:30;2.05;;;1.60;;
77705;SDS011;66874;45.274;5.880;2023-04-29T17:41:56;3.55;;;1.58;;
77705;SDS011;66874;45.274;5.880;2023-04-29T17:44:21;3.17;;;1.52;;
77705;SDS011;66874;45.274;5.880;2023-04-29T17:46:47;3.70;;;1.50;;
77705;SDS011;66874;45.274;5.880;2023-04-29T17:49:12;2.22;;;1.63;;
77705;SDS011;66874;45.274;5.880;2023-04-29T17:51:37;2.65;;;2.00;;
77705;SDS011;66874;45.274;5.880;2023-04-29T17:54:03;5.63;;;1.70;;
77705;SDS011;66874;45.274;5.880;2023-04-29T17:56:29;3.10;;;1.80;;
77705;SDS011;66874;45.274;5.880;2023-04-29T17:58:56;3.50;;;1.60;;
77705;SDS011;66874;45.274;5.880;2023-04-29T18:01:21;2.60;;;1.63;;
77705;SDS011;66874;45.274;5.880;2023-04-29T18:03:47;2.55;;;1.75;;
77705;SDS011;66874;45.274;5.880;2023-04-29T18:06:14;5.07;;;1.60;;
77705;SDS011;66874;45.274;5.880;2023-04-29T18:08:40;2.55;;;1.30;;
77705;SDS011;66874;45.274;5.880;2023-04-29T18:11:06;4.32;;;1.70;;
77705;SDS011;66874;45.274;5.880;2023-04-29T18:13:32;3.55;;;2.15;;
77705;SDS011;66874;45.274;5.880;2023-04-29T18:15:58;3.40;;;1.80;;
77705;SDS011;66874;45.274;5.880;2023-04-29T18:18:24;3.33;;;2.00;;
77705;SDS011;66874;45.274;5.880;2023-04-29T18:20:50;3.40;;;2.05;;
77705;SDS011;66874;45.274;5.880;2023-04-29T18:23:15;3.72;;;2.00;;
77705;SDS011;66874;45.274;5.880;2023-04-29T18:25:41;8.68;;;2.03;;
77705;SDS011;66874;45.274;5.880;2023-04-29T18:28:06;5.40;;;2.30;;
77705;SDS011;66874;45.274;5.880;2023-04-29T18:30:33;3.17;;;2.00;;
77705;SDS011;66874;45.274;5.880;2023-04-29T18:32:59;3.72;;;2.10;;
77705;SDS011;66874;45.274;5.880;2023-04-29T18:35:25;3.72;;;2.20;;
77705;SDS011;66874;45.274;5.880;2023-04-29T18:37:53;5.57;;;1.80;;
77705;SDS011;66874;45.274;5.880;2023-04-29T18:40:19;2.92;;;1.73;;
77705;SDS011;66874;45.274;5.880;2023-04-29T18:42:44;2.65;;;1.70;;
77705;SDS011;66874;45.274;5.880;2023-04-29T18:45:10;3.25;;;1.83;;
77705;SDS011;66874;45.274;5.880;2023-04-29T18:47:35;3.33;;;1.83;;
77705;SDS011;66874;45.274;5.880;2023-04-29T18:50:01;3.88;;;2.10;;
77705;SDS011;66874;45.274;5.880;2023-04-29T18:52:26;2.00;;;1.23;;
77705;SDS011;66874;45.274;5.880;2023-04-29T18:54:52;2.60;;;1.95;;
77705;SDS011;66874;45.274;5.880;2023-04-29T18:57:17;2.72;;;1.73;;
77705;SDS011;66874;45.274;5.880;2023-04-29T18:59:43;4.30;;;1.73;;
77705;SDS011;66874;45.274;5.880;2023-04-29T19:02:08;3.15;;;1.65;;
77705;SDS011;66874;45.274;5.880;2023-04-29T19:04:33;5.20;;;1.60;;
77705;SDS011;66874;45.274;5.880;2023-04-29T19:06:59;4.20;;;1.50;;
77705;SDS011;66874;45.274;5.880;2023-04-29T19:09:26;3.95;;;1.33;;
77705;SDS011;66874;45.274;5.880;2023-04-29T19:11:53;4.43;;;1.30;;
77705;SDS011;66874;45.274;5.880;2023-04-29T19:14:18;2.22;;;1.15;;
77705;SDS011;66874;45.274;5.880;2023-04-29T19:16:44;2.47;;;1.40;;
77705;SDS011;66874;45.274;5.880;2023-04-29T19:19:09;3.22;;;1.90;;
77705;SDS011;66874;45.274;5.880;2023-04-29T19:21:35;3.30;;;1.75;;
77705;SDS011;66874;45.274;5.880;2023-04-29T19:24:01;6.40;;;2.08;;
77705;SDS011;66874;45.274;5.880;2023-04-29T19:26:26;4.30;;;2.17;;
77705;SDS011;66874;45.274;5.880;2023-04-29T19:28:52;8.45;;;2.15;;
77705;SDS011;66874;45.274;5.880;2023-04-29T19:31:18;3.30;;;1.85;;
77705;SDS011;66874;45.274;5.880;2023-04-29T19:33:43;3.15;;;1.60;;
77705;SDS011;66874;45.274;5.880;2023-04-29T19:36:09;4.22;;;1.75;;
77705;SDS011;66874;45.274;5.880;2023-04-29T19:38:35;2.58;;;1.75;;
77705;SDS011;66874;45.274;5.880;2023-04-29T19:41:01;7.07;;;2.47;;
77705;SDS011;66874;45.274;5.880;2023-04-29T19:43:26;4.03;;;2.03;;
77705;SDS011;66874;45.274;5.880;2023-04-29T19:45:52;1.85;;;1.52;;
77705;SDS011;66874;45.274;5.880;2023-04-29T19:48:17;2.10;;;1.58;;
77705;SDS011;66874;45.274;5.880;2023-04-29T19:50:43;3.47;;;1.92;;
77705;SDS011;66874;45.274;5.880;2023-04-29T19:53:09;3.05;;;2.00;;
77705;SDS011;66874;45.274;5.880;2023-04-29T19:55:35;5.77;;;1.93;;
77705;SDS011;66874;45.274;5.880;2023-04-29T19:58:03;3.15;;;1.73;;
77705;SDS011;66874;45.274;5.880;2023-04-29T20:00:28;2.97;;;1.80;;
77705;SDS011;66874;45.274;5.880;2023-04-29T20:02:53;2.97;;;1.88;;
77705;SDS011;66874;45.274;5.880;2023-04-29T20:05:19;2.78;;;1.80;;
77705;SDS011;66874;45.274;5.880;2023-04-29T20:07:45;1.98;;;1.20;;
77705;SDS011;66874;45.274;5.880;2023-04-29T20:10:10;3.83;;;1.80;;
77705;SDS011;66874;45.274;5.880;2023-04-29T20:12:36;2.25;;;1.52;;
77705;SDS011;66874;45.274;5.880;2023-04-29T20:15:01;2.70;;;1.75;;